Time;durP1;ratioP1;P1;durP2;ratioP2;P2;SDS_P1;SDS_P2;PMS_P1;PMS_P2;Temp;Humidity;BMP_temperature;BMP_pressure;BME280_temperature;BME280_humidity;BME280_pressure;Samples;Min_cycle;Max_cycle;Signal;HPM_P1;HPM_P2
2022/04/01 00:00:04;;;;;;;11.83;7.53;;;7.50;99.90;;;;;;1883644;75;21043;-86
2022/04/01 00:02:58;;;;;;;10.43;7.58;;;7.60;99.90;;;;;;1883542;75;21067;-87
2022/04/01 00:08:34;;;;;;;11.43;6.65;;;7.50;99.90;;;;;;1940157;72;22177;-87
2022/04/01 00:11:44;;;;;;;9.95;7.08;;;7.40;99.90;;;;;;1894172;75;21531;-86
2022/04/01 00:14:36;;;;;;;9.98;7.10;;;7.30;99.90;;;;;;1877279;75;21121;-85
2022/04/01 00:17:29;;;;;;;8.43;6.00;;;7.20;99.90;;;;;;1904301;75;21112;-85
2022/04/01 00:20:21;;;;;;;7.65;5.72;;;7.20;99.90;;;;;;1890543;75;21103;-86
2022/04/01 00:23:14;;;;;;;16.45;12.03;;;7.20;99.90;;;;;;1875073;75;21059;-86
2022/04/01 00:28:44;;;;;;;9.45;6.28;;;7.30;99.90;;;;;;1955693;72;22142;-86
2022/04/01 00:31:59;;;;;;;7.55;5.92;;;7.20;99.90;;;;;;1906136;74;21132;-85
2022/04/01 00:34:52;;;;;;;8.13;5.80;;;7.20;99.90;;;;;;1905584;75;21110;-85
2022/04/01 00:37:43;;;;;;;8.30;5.78;;;7.20;99.90;;;;;;1923844;74;21056;-87
2022/04/01 00:40:35;;;;;;;6.53;5.20;;;7.20;99.90;;;;;;1927037;74;21657;-86
2022/04/01 00:43:32;;;;;;;6.80;5.45;;;7.20;99.90;;;;;;1905301;75;21136;-86
2022/04/01 00:46:24;;;;;;;7.80;5.15;;;7.20;99.90;;;;;;1905352;75;21146;-86
2022/04/01 00:49:17;;;;;;;6.75;5.17;;;7.20;99.90;;;;;;1920470;74;21143;-86
2022/04/01 00:52:10;;;;;;;7.62;5.70;;;7.20;99.90;;;;;;1906576;74;21056;-86
2022/04/01 00:57:46;;;;;;;6.78;5.15;;;7.10;99.90;;;;;;1955169;72;22102;-86
2022/04/01 01:00:56;;;;;;;7.67;5.72;;;7.20;99.90;;;;;;1936971;73;21055;-86
2022/04/01 01:03:49;;;;;;;11.73;6.10;;;7.10;99.90;;;;;;1917772;75;21101;-86
2022/04/01 01:06:43;;;;;;;7.17;5.60;;;7.10;99.90;;;;;;1917658;75;21098;-87
2022/04/01 01:09:36;;;;;;;8.15;5.80;;;7.10;99.90;;;;;;1917259;75;21106;-86
2022/04/01 01:15:13;;;;;;;8.03;5.80;;;7.00;99.90;;;;;;1974110;72;22636;-85
2022/04/01 01:18:23;;;;;;;9.25;6.58;;;7.10;99.90;;;;;;1917696;75;21110;-88
2022/04/01 01:23:56;;;;;;;8.30;6.70;;;7.00;99.90;;;;;;1957958;72;22162;-86
2022/04/01 01:29:46;;;;;;;10.25;6.67;;;7.00;99.90;;;;;;1958388;72;22108;-86
2022/04/01 01:32:56;;;;;;;7.20;5.78;;;7.00;99.90;;;;;;1917710;75;21094;-85
2022/04/01 01:35:52;;;;;;;9.30;6.40;;;7.00;99.90;;;;;;1891943;75;21129;-85
2022/04/01 01:38:44;;;;;;;9.30;6.47;;;7.10;99.90;;;;;;1909683;75;21051;-85
2022/04/01 01:41:36;;;;;;;8.95;7.03;;;7.10;99.90;;;;;;1915116;75;21088;-85
2022/04/01 01:44:30;;;;;;;10.48;7.55;;;7.00;99.90;;;;;;1899550;75;21063;-86
2022/04/01 01:56:47;;;;;;;24.40;15.25;;;6.90;99.90;;;;;;1876691;75;21171;-86
2022/04/01 01:59:39;;;;;;;25.40;17.95;;;6.90;99.90;;;;;;1893210;75;21052;-85
2022/04/01 02:02:34;;;;;;;22.67;16.17;;;7.00;99.90;;;;;;1881769;75;21071;-85
2022/04/01 02:08:06;;;;;;;24.67;17.00;;;6.80;99.90;;;;;;1951888;72;22131;-85
2022/04/01 02:11:17;;;;;;;26.30;17.82;;;6.70;99.90;;;;;;1903241;75;21165;-86
2022/04/01 02:14:09;;;;;;;22.62;16.27;;;6.70;99.90;;;;;;1887050;75;21056;-85
2022/04/01 02:19:40;;;;;;;21.25;15.10;;;6.70;99.90;;;;;;1948236;72;22202;-85
2022/04/01 02:22:52;;;;;;;21.50;14.75;;;6.70;99.90;;;;;;1903490;75;21059;-85
2022/04/01 02:28:24;;;;;;;16.07;10.75;;;6.70;99.90;;;;;;1941822;72;22212;-85
2022/04/01 02:31:35;;;;;;;14.53;10.03;;;6.70;99.90;;;;;;1938627;73;21099;-85
2022/04/01 02:34:40;;;;;;;13.48;9.23;;;6.70;99.90;;;;;;1951496;73;21091;-84
2022/04/01 02:40:12;;;;;;;11.00;7.80;;;6.80;99.90;;;;;;1976069;72;22190;-85
2022/04/01 02:43:23;;;;;;;10.70;7.50;;;6.90;99.90;;;;;;1928701;73;21082;-85
2022/04/01 02:48:54;;;;;;;10.13;7.42;;;7.10;99.90;;;;;;1940877;72;22135;-85
2022/04/01 02:52:18;;;;;;;10.23;7.53;;;7.00;99.90;;;;;;1905225;75;21048;-84
2022/04/01 02:55:13;;;;;;;11.28;8.05;;;6.90;99.90;;;;;;1883486;75;21204;-85
2022/04/01 02:58:05;;;;;;;11.15;7.53;;;7.00;99.90;;;;;;1883685;75;21503;-85
2022/04/01 03:00:57;;;;;;;13.48;9.98;;;6.90;99.90;;;;;;1876472;75;21067;-85
2022/04/01 03:03:49;;;;;;;13.83;10.08;;;6.90;99.90;;;;;;1875871;75;21142;-85
2022/04/01 03:06:43;;;;;;;18.00;11.65;;;6.90;99.90;;;;;;1900918;75;21072;-84
2022/04/01 03:09:36;;;;;;;17.90;11.10;;;6.90;99.90;;;;;;1894593;75;21220;-84
2022/04/01 03:15:11;;;;;;;14.33;10.70;;;6.90;99.90;;;;;;1955521;72;22247;-84
2022/04/01 03:18:23;;;;;;;14.68;9.85;;;6.90;99.90;;;;;;1905527;75;21099;-86
2022/04/01 03:21:15;;;;;;;12.98;9.88;;;6.90;99.90;;;;;;1883523;75;21121;-85
2022/04/01 03:24:09;;;;;;;13.38;8.90;;;6.90;99.90;;;;;;1884012;75;21084;-85
2022/04/01 03:29:41;;;;;;;18.92;12.65;;;7.00;99.90;;;;;;1941508;72;22186;-85
2022/04/01 03:32:53;;;;;;;16.77;11.35;;;7.00;99.90;;;;;;1905370;75;21111;-85
2022/04/01 03:35:46;;;;;;;13.58;9.95;;;7.00;99.90;;;;;;1922274;73;21082;-85
2022/04/01 03:38:40;;;;;;;14.18;10.53;;;7.00;99.90;;;;;;1931116;74;21184;-85
2022/04/01 03:44:12;;;;;;;13.98;9.80;;;7.00;99.90;;;;;;1956345;72;22099;-83
2022/04/01 03:47:26;;;;;;;15.20;10.72;;;7.00;99.90;;;;;;1911427;74;21151;-85
2022/04/01 03:53:04;;;;;;;20.48;15.03;;;7.10;99.90;;;;;;1947609;72;22104;-85
2022/04/01 03:56:16;;;;;;;20.40;14.13;;;7.00;99.90;;;;;;1889535;75;21142;-84
2022/04/01 03:59:17;;;;;;;20.80;14.33;;;6.90;99.90;;;;;;1850350;75;21075;-84
2022/04/01 04:02:12;;;;;;;17.50;10.63;;;6.80;99.90;;;;;;1909882;75;21063;-84
2022/04/01 04:07:48;;;;;;;11.48;7.70;;;6.30;99.90;;;;;;1956917;72;22151;-85
2022/04/01 04:11:01;;;;;;;9.75;6.58;;;5.90;99.90;;;;;;1886416;75;21067;-84
2022/04/01 04:13:55;;;;;;;7.42;5.85;;;5.70;99.90;;;;;;1904895;75;21060;-85
2022/04/01 04:19:31;;;;;;;6.42;4.80;;;5.20;99.90;;;;;;1939850;72;22392;-86
2022/04/01 04:22:49;;;;;;;5.15;3.40;;;4.90;99.90;;;;;;1894823;75;21121;-85
2022/04/01 04:25:43;;;;;;;5.08;4.00;;;4.60;99.90;;;;;;1887776;75;21063;-86
2022/04/01 04:28:36;;;;;;;4.90;3.80;;;4.50;99.90;;;;;;1886607;75;21058;-84
2022/04/01 04:34:18;;;;;;;3.98;3.30;;;4.10;99.90;;;;;;1976251;72;22122;-85
2022/04/01 04:37:30;;;;;;;4.08;2.90;;;4.00;99.90;;;;;;1921808;73;21426;-87
2022/04/01 04:40:23;;;;;;;3.05;2.58;;;3.80;99.90;;;;;;1923342;73;21635;-85
2022/04/01 04:45:57;;;;;;;1.90;1.70;;;3.70;99.90;;;;;;1947267;72;22330;-86
2022/04/01 04:49:07;;;;;;;2.67;2.00;;;3.50;99.90;;;;;;1883942;75;21680;-86
2022/04/01 04:54:44;;;;;;;2.45;2.25;;;3.20;99.90;;;;;;1952803;72;22198;-86
2022/04/01 05:06:47;;;;;;;2.37;2.00;;;2.90;99.90;;;;;;1961013;72;21082;-86
2022/04/01 05:26:06;;;;;;;3.92;1.92;;;2.00;99.90;;;;;;1941233;72;22178;-88
2022/04/01 05:29:26;;;;;;;1.80;1.60;;;2.00;99.90;;;;;;1891050;75;21142;-86
2022/04/01 05:35:00;;;;;;;1.40;1.30;;;1.80;99.90;;;;;;1958033;72;22246;-87
2022/04/01 05:38:11;;;;;;;1.45;1.17;;;1.70;99.90;;;;;;1905092;75;21031;-88
2022/04/01 05:43:46;;;;;;;2.45;1.42;;;1.60;99.90;;;;;;1971852;72;22645;-88
2022/04/01 05:47:07;;;;;;;2.10;1.52;;;1.60;99.90;;;;;;1917437;75;21126;-88
2022/04/01 05:50:01;;;;;;;0.88;0.68;;;1.50;99.90;;;;;;1940973;73;21116;-87
2022/04/01 05:52:55;;;;;;;1.27;0.80;;;1.50;99.90;;;;;;1935925;73;21201;-87
2022/04/01 05:58:30;;;;;;;0.70;0.60;;;1.50;99.90;;;;;;1938915;72;22146;-87
2022/04/01 06:01:45;;;;;;;0.68;0.60;;;1.50;99.90;;;;;;1899578;75;21127;-87
2022/04/01 06:05:01;;;;;;;1.20;0.70;;;1.50;99.90;;;;;;1883276;75;21102;-87
2022/04/01 06:07:58;;;;;;;0.60;0.40;;;1.60;99.90;;;;;;1871718;75;21557;-86
2022/04/01 06:13:41;;;;;;;0.60;0.40;;;1.70;99.90;;;;;;1955908;72;22198;-87
2022/04/01 06:17:00;;;;;;;0.88;0.60;;;1.70;99.90;;;;;;1881443;75;21082;-87
2022/04/01 06:19:58;;;;;;;0.50;0.42;;;1.60;99.90;;;;;;1888794;75;21131;-87
2022/04/01 06:23:01;;;;;;;0.50;0.20;;;1.60;99.90;;;;;;1895664;75;21047;-88
2022/04/01 06:28:35;;;;;;;0.33;0.33;;;1.70;99.90;;;;;;1960956;72;22578;-94
2022/04/01 06:35:19;;;;;;;0.30;0.30;;;1.80;99.90;;;;;;1942138;74;22101;-92
2022/04/01 06:38:55;;;;;;;0.30;0.30;;;1.80;99.90;;;;;;1918700;75;21069;-94
2022/04/01 06:41:51;;;;;;;0.50;0.50;;;1.80;99.90;;;;;;1891782;75;21111;-95
2022/04/01 06:51:00;;;;;;;0.60;0.42;;;1.70;99.90;;;;;;1962531;72;22246;-88
2022/04/01 06:54:20;;;;;;;0.53;0.50;;;1.70;99.90;;;;;;1911634;74;21128;-91
2022/04/01 06:59:59;;;;;;;0.40;0.40;;;1.60;99.90;;;;;;1950460;72;22241;-93
2022/04/01 07:03:10;;;;;;;0.25;0.20;;;1.60;99.90;;;;;;1927748;74;21796;-91
2022/04/01 07:09:41;;;;;;;0.47;0.47;;;1.50;99.90;;;;;;2079839;68;22665;-95
2022/04/01 07:12:52;;;;;;;0.53;0.45;;;1.50;99.90;;;;;;2026442;70;21022;-90
2022/04/01 07:15:45;;;;;;;0.50;0.50;;;1.60;99.90;;;;;;2035601;70;21074;-93
2022/04/01 07:43:45;;;;;;;3.33;1.32;;;1.40;99.90;;;;;;1945660;72;22252;-90
2022/04/01 07:49:15;;;;;;;1.90;1.50;;;1.40;99.90;;;;;;1950629;72;22119;-87
2022/04/01 07:52:42;;;;;;;2.33;1.60;;;1.30;99.90;;;;;;1904935;74;21108;-82
2022/04/01 08:22:55;;;;;;;2.98;1.57;;;1.50;99.90;;;;;;1936825;72;22350;-92
2022/04/01 08:28:46;;;;;;;2.20;1.40;;;1.40;99.90;;;;;;1958234;72;22230;-91
2022/04/01 08:31:56;;;;;;;2.15;1.62;;;1.40;99.90;;;;;;1873339;76;21075;-92
2022/04/01 08:34:49;;;;;;;2.45;1.87;;;1.30;99.90;;;;;;1888495;75;21143;-89
2022/04/01 08:37:41;;;;;;;2.27;2.00;;;1.30;99.90;;;;;;1892558;75;21062;-89
2022/04/01 08:43:12;;;;;;;2.00;1.30;;;1.30;99.90;;;;;;1958316;72;22220;-91
2022/04/01 08:49:01;;;;;;;1.82;1.55;;;1.30;99.90;;;;;;1951560;72;22344;-90
2022/04/01 08:52:11;;;;;;;2.83;1.50;;;1.30;99.90;;;;;;1901961;75;21036;-89
2022/04/01 08:57:47;;;;;;;1.72;1.17;;;1.20;99.90;;;;;;1936259;72;22130;-87
2022/04/01 09:03:37;;;;;;;1.05;0.60;;;1.00;99.90;;;;;;1976283;72;22103;-92
2022/04/01 09:06:48;;;;;;;1.20;0.82;;;1.10;99.90;;;;;;1929128;74;21163;-95
2022/04/01 09:09:39;;;;;;;1.00;0.80;;;1.10;99.90;;;;;;1939382;74;21243;-94
2022/04/01 09:12:32;;;;;;;1.90;1.00;;;1.00;99.90;;;;;;1937988;74;21044;-91
2022/04/01 09:18:04;;;;;;;0.98;0.88;;;0.80;99.90;;;;;;1944266;72;22255;-90
2022/04/01 09:21:15;;;;;;;1.70;1.52;;;0.90;99.90;;;;;;1903010;75;21075;-91
2022/04/01 09:24:09;;;;;;;1.95;1.45;;;1.00;99.90;;;;;;1904524;75;21217;-91
2022/04/01 09:49:42;;;;;;;2.12;1.35;;;0.90;99.90;;;;;;2063011;69;22525;-88
2022/04/01 09:52:52;;;;;;;1.02;0.82;;;1.00;99.90;;;;;;1999344;71;21100;-91
2022/04/01 09:55:46;;;;;;;1.95;1.35;;;1.00;99.90;;;;;;2018379;71;21102;-95
2022/04/01 09:58:45;;;;;;;3.02;1.62;;;1.00;99.90;;;;;;2011013;71;21108;-95
2022/04/01 10:01:40;;;;;;;3.60;2.23;;;0.90;99.90;;;;;;1985549;72;21158;-94
2022/04/01 10:04:37;;;;;;;3.33;2.50;;;0.90;99.90;;;;;;1966741;71;21153;-95
2022/04/01 10:07:35;;;;;;;2.90;1.98;;;0.90;99.90;;;;;;1986960;71;21128;-94
2022/04/01 10:10:27;;;;;;;3.25;2.20;;;0.90;99.90;;;;;;1986808;72;21076;-94
2022/04/01 10:13:22;;;;;;;2.50;2.30;;;0.90;99.90;;;;;;1986861;72;21043;-94
2022/04/01 10:16:15;;;;;;;3.85;2.80;;;0.80;99.90;;;;;;1985808;72;21045;-96
2022/04/01 10:19:12;;;;;;;3.90;3.00;;;0.80;99.90;;;;;;1985549;72;21161;-89
2022/04/01 10:22:05;;;;;;;4.75;3.12;;;0.80;99.90;;;;;;2025963;69;21090;-92
2022/04/01 10:25:03;;;;;;;4.35;2.87;;;0.90;99.90;;;;;;2018694;71;21067;-90
2022/04/01 10:27:57;;;;;;;2.85;2.37;;;0.80;99.90;;;;;;2014724;71;21118;-89
2022/04/01 10:33:44;;;;;;;3.02;2.15;;;0.90;99.90;;;;;;1957649;72;22112;-89
2022/04/01 10:37:00;;;;;;;2.00;1.80;;;0.90;99.90;;;;;;1908258;74;21060;-89
2022/04/01 10:39:55;;;;;;;2.22;1.72;;;0.90;99.90;;;;;;1873072;76;21055;-89
2022/04/01 10:45:27;;;;;;;2.62;2.15;;;1.00;99.90;;;;;;1948347;72;22220;-89
2022/04/01 10:52:01;;;;;;;2.85;2.00;;;1.00;99.90;;;;;;1906782;75;21074;-90
2022/04/01 10:55:08;;;;;;;3.75;2.40;;;0.90;99.90;;;;;;1886415;75;21101;-90
2022/04/01 10:58:09;;;;;;;3.00;2.15;;;1.00;99.90;;;;;;1918400;75;21168;-88
2022/04/01 11:01:01;;;;;;;2.40;1.92;;;1.00;99.90;;;;;;1898866;75;21106;-88
2022/04/01 11:03:56;;;;;;;2.85;2.00;;;1.00;99.90;;;;;;1898671;75;21079;-91
2022/04/01 11:06:54;;;;;;;3.37;2.00;;;1.00;99.90;;;;;;1895539;75;21043;-90
2022/04/01 11:09:49;;;;;;;1.32;1.22;;;1.00;99.90;;;;;;1911570;75;21066;-89
2022/04/01 11:12:43;;;;;;;1.40;1.30;;;1.00;99.90;;;;;;1907090;75;21116;-86
2022/04/01 11:15:35;;;;;;;1.75;1.47;;;1.00;99.90;;;;;;1903632;75;21044;-94
2022/04/01 11:18:28;;;;;;;1.95;1.47;;;1.10;99.90;;;;;;1903532;75;21066;-86
2022/04/01 11:21:31;;;;;;;2.52;1.50;;;1.20;99.90;;;;;;1906936;75;21094;-87
2022/04/01 11:27:26;;;;;;;3.87;2.40;;;1.30;99.90;;;;;;1951566;72;22163;-91
2022/04/01 11:30:39;;;;;;;2.00;1.27;;;1.20;99.90;;;;;;1917921;75;21067;-89
2022/04/01 11:33:30;;;;;;;4.53;1.55;;;1.20;99.90;;;;;;1917874;75;21047;-89
2022/04/01 11:36:24;;;;;;;2.27;1.40;;;1.20;99.90;;;;;;1927858;74;21058;-89
2022/04/01 11:39:20;;;;;;;1.75;1.00;;;1.20;99.90;;;;;;1917751;75;21055;-90
2022/04/01 11:42:11;;;;;;;1.35;0.90;;;1.30;99.90;;;;;;1917796;75;21048;-90
2022/04/01 11:45:03;;;;;;;1.85;1.45;;;1.40;99.90;;;;;;1917820;75;21573;-87
2022/04/01 11:47:56;;;;;;;1.17;1.07;;;1.40;99.90;;;;;;1917735;75;21074;-91
2022/04/01 11:50:52;;;;;;;4.28;1.00;;;1.40;99.90;;;;;;1917711;75;21136;-90
2022/04/01 11:53:48;;;;;;;2.55;1.40;;;1.40;99.90;;;;;;1917707;75;21142;-90
2022/04/01 11:56:39;;;;;;;1.00;0.75;;;1.40;99.90;;;;;;1917458;75;21102;-91
2022/04/01 11:59:33;;;;;;;3.05;1.35;;;1.50;99.90;;;;;;1917626;75;21224;-95
2022/04/01 12:02:25;;;;;;;1.67;1.00;;;1.60;99.90;;;;;;1917858;75;21087;-96
2022/04/01 12:05:18;;;;;;;1.60;1.10;;;1.60;99.90;;;;;;1917943;75;21055;-94
2022/04/01 12:11:21;;;;;;;1.87;0.80;;;1.80;99.90;;;;;;1917796;75;21117;-92
2022/04/01 12:14:13;;;;;;;2.85;1.30;;;1.90;99.90;;;;;;1917855;75;21089;-95
2022/04/01 12:17:19;;;;;;;6.45;1.37;;;2.10;99.90;;;;;;1918017;75;21051;-95
2022/04/01 12:20:12;;;;;;;1.80;1.22;;;2.10;99.90;;;;;;1934411;73;21139;-94
2022/04/01 12:23:06;;;;;;;2.87;1.50;;;2.20;99.90;;;;;;1951924;73;21094;-93
2022/04/01 12:25:58;;;;;;;3.10;1.27;;;2.20;99.90;;;;;;1944513;73;21059;-95
2022/04/01 12:28:52;;;;;;;4.35;1.47;;;2.30;99.90;;;;;;1927919;74;21204;-92
2022/04/01 12:39:50;;;;;;;1.40;0.80;;;2.40;99.90;;;;;;1926272;74;21097;-95
2022/04/01 12:42:48;;;;;;;0.95;0.88;;;2.20;99.90;;;;;;1904482;75;21047;-94
2022/04/01 12:46:12;;;;;;;2.15;1.20;;;2.10;99.90;;;;;;1922183;73;21155;-94
2022/04/01 12:55:58;;;;;;;2.15;1.00;;;1.90;99.90;;;;;;1960178;72;22231;-90
2022/04/01 12:59:11;;;;;;;1.60;1.00;;;1.70;99.90;;;;;;1914056;74;21096;-88
2022/04/01 13:02:06;;;;;;;4.47;1.15;;;1.60;99.90;;;;;;1922020;74;21054;-89
2022/04/01 13:04:59;;;;;;;1.20;0.93;;;1.60;99.90;;;;;;1905255;75;21145;-88
2022/04/01 13:07:57;;;;;;;3.00;0.98;;;1.70;99.90;;;;;;1912912;74;21107;-90
2022/04/01 13:10:55;;;;;;;2.65;1.10;;;1.60;99.90;;;;;;1906917;74;21522;-89
2022/04/01 13:13:53;;;;;;;1.35;0.98;;;1.60;99.90;;;;;;1922533;74;21138;-88
2022/04/01 13:16:45;;;;;;;0.98;0.88;;;1.80;99.90;;;;;;1919003;74;21098;-88
2022/04/01 13:20:03;;;;;;;;;;;;;;;;;;;;;
2022/04/01 13:22:51;;;;;;;4.42;1.20;;;1.90;99.90;;;;;;1864523;75;21058;-89
2022/04/01 13:25:43;;;;;;;1.02;0.85;;;2.00;99.90;;;;;;1909688;74;21039;-88
2022/04/01 13:28:35;;;;;;;1.37;0.90;;;2.00;99.90;;;;;;1905230;75;21042;-80
2022/04/01 13:31:30;;;;;;;3.00;0.60;;;2.10;99.90;;;;;;1914879;74;21051;-81
2022/04/01 13:34:22;;;;;;;1.45;0.78;;;2.00;99.90;;;;;;1904978;75;21110;-90
2022/04/01 13:37:15;;;;;;;1.12;1.00;;;2.00;99.90;;;;;;1905085;75;21047;-87
2022/04/01 13:40:09;;;;;;;0.85;0.70;;;2.00;99.90;;;;;;1908088;73;21350;-86
2022/04/01 13:43:01;;;;;;;1.32;0.55;;;2.00;99.90;;;;;;1922456;74;21125;-85
2022/04/01 13:45:53;;;;;;;1.52;0.78;;;1.90;99.90;;;;;;1929003;74;21078;-80
2022/04/01 13:48:45;;;;;;;0.85;0.50;;;1.90;99.90;;;;;;1915661;74;21213;-86
2022/04/01 13:51:37;;;;;;;0.17;0.17;;;1.70;99.90;;;;;;1904681;75;21099;-86
2022/04/01 13:54:29;;;;;;;0.40;0.40;;;1.50;99.90;;;;;;1904557;74;21134;-83
2022/04/01 13:57:21;;;;;;;0.37;0.37;;;1.50;99.90;;;;;;1911609;75;21083;-87
2022/04/01 14:00:14;;;;;;;0.37;0.37;;;1.40;99.90;;;;;;1914850;74;21151;-86
2022/04/01 14:03:09;;;;;;;1.62;0.30;;;1.40;99.90;;;;;;1917587;73;21094;-87
2022/04/01 14:06:02;;;;;;;0.82;0.40;;;1.30;99.90;;;;;;1916474;74;21168;-86
2022/04/01 14:08:54;;;;;;;0.75;0.40;;;1.40;99.90;;;;;;1908208;75;21177;-86
2022/04/01 14:11:46;;;;;;;0.60;0.60;;;1.20;99.90;;;;;;1908509;75;21080;-88
2022/04/01 14:14:37;;;;;;;0.30;0.30;;;1.30;99.90;;;;;;1903726;75;21145;-88
2022/04/01 14:17:29;;;;;;;0.23;0.20;;;1.40;99.90;;;;;;1907154;74;21095;-88
2022/04/01 14:20:21;;;;;;;0.37;0.30;;;1.40;99.90;;;;;;1911481;74;21163;-87
2022/04/01 14:23:14;;;;;;;0.65;0.45;;;1.50;99.90;;;;;;1913300;74;21048;-80
2022/04/01 14:26:08;;;;;;;2.02;0.53;;;1.50;99.90;;;;;;1922747;74;21202;-88
2022/04/01 14:30:16;;;;;;;0.25;0.25;;;1.60;99.90;;;;;;1904065;75;21110;-88
2022/04/01 14:34:35;;;;;;;0.42;0.42;;;1.70;99.90;;;;;;1953102;72;22582;-86
2022/04/01 14:37:46;;;;;;;0.37;0.25;;;1.70;99.90;;;;;;1917263;75;21085;-84
2022/04/01 14:40:38;;;;;;;3.72;0.10;;;1.70;99.90;;;;;;1946804;73;21582;-83
2022/04/01 14:46:19;;;;;;;2.47;0.45;;;1.80;99.90;;;;;;1956765;72;22170;-86
2022/04/01 14:49:30;;;;;;;1.55;0.45;;;1.80;99.90;;;;;;1920665;73;21196;-88
2022/04/01 14:55:01;;;;;;;1.42;0.78;;;1.80;99.90;;;;;;1947840;72;22139;-86
2022/04/01 14:58:12;;;;;;;0.37;0.25;;;1.70;99.90;;;;;;1890168;74;21065;-86
2022/04/01 15:03:55;;;;;;;0.85;0.68;;;1.80;99.90;;;;;;1951527;72;22206;-79
2022/04/01 15:10:00;;;;;;;0.65;0.40;;;1.70;99.90;;;;;;1975320;72;22191;-86
2022/04/01 15:13:10;;;;;;;2.70;0.65;;;1.70;99.90;;;;;;1934653;73;21118;-86
2022/04/01 15:16:03;;;;;;;2.85;0.90;;;1.70;99.90;;;;;;1921235;73;21094;-86
2022/04/01 15:21:44;;;;;;;1.47;0.50;;;1.60;99.90;;;;;;1951262;72;22235;-87
2022/04/01 15:24:56;;;;;;;0.98;0.62;;;1.60;99.90;;;;;;1904550;74;21090;-88
2022/04/01 15:30:31;;;;;;;2.70;0.78;;;1.50;99.90;;;;;;1932557;72;22181;-89
2022/04/01 15:33:41;;;;;;;0.20;0.20;;;1.50;99.90;;;;;;1891299;75;21142;-89
2022/04/01 15:39:15;;;;;;;0.68;0.50;;;1.50;99.90;;;;;;1947972;72;22345;-87
2022/04/01 15:45:11;;;;;;;0.68;0.60;;;1.70;99.90;;;;;;1941707;72;22267;-88
2022/04/01 16:04:22;;;;;;;0.40;0.40;;;1.60;99.90;;;;;;1940708;72;22209;-88
2022/04/01 16:10:13;;;;;;;0.68;0.40;;;1.60;99.90;;;;;;1953738;72;22141;-87
2022/04/01 16:13:27;;;;;;;0.40;0.28;;;1.60;99.90;;;;;;1871940;76;21156;-87
2022/04/01 16:16:18;;;;;;;0.75;0.45;;;1.40;99.90;;;;;;1916723;75;21105;-87
2022/04/01 16:21:49;;;;;;;0.30;0.30;;;1.30;99.90;;;;;;1942978;72;22217;-87
2022/04/01 16:25:00;;;;;;;0.25;0.17;;;1.40;99.90;;;;;;1916925;75;21059;-86
2022/04/01 16:27:52;;;;;;;1.12;0.50;;;1.40;99.90;;;;;;1906491;75;21163;-88
2022/04/01 16:30:43;;;;;;;0.62;0.40;;;1.40;99.90;;;;;;1889687;75;21172;-87
2022/04/01 16:36:13;;;;;;;0.20;0.20;;;1.40;99.90;;;;;;1942581;72;22349;-86
2022/04/01 16:39:24;;;;;;;0.93;0.60;;;1.40;99.90;;;;;;1894688;75;21164;-86
2022/04/01 16:44:54;;;;;;;0.72;0.60;;;1.50;99.90;;;;;;1957548;72;22212;-86
2022/04/01 16:48:06;;;;;;;0.35;0.28;;;1.50;99.90;;;;;;1898060;75;21074;-86
2022/04/01 16:50:58;;;;;;;0.90;0.60;;;1.60;99.90;;;;;;1899728;75;21172;-86
2022/04/01 16:53:52;;;;;;;0.45;0.45;;;1.60;99.90;;;;;;1916393;75;21132;-86
2022/04/01 16:56:44;;;;;;;0.62;0.60;;;1.60;99.90;;;;;;1899195;75;21280;-85
2022/04/01 16:59:36;;;;;;;0.60;0.40;;;1.70;99.90;;;;;;1916801;75;21181;-85
2022/04/01 17:05:17;;;;;;;0.30;0.30;;;1.80;99.90;;;;;;1953600;72;22185;-86
2022/04/01 17:14:24;;;;;;;1.72;0.70;;;1.60;99.90;;;;;;1930109;72;22291;-85
2022/04/01 17:20:21;;;;;;;0.85;0.50;;;1.60;99.90;;;;;;1956335;72;22621;-85
2022/04/01 17:26:12;;;;;;;1.73;0.50;;;1.70;99.90;;;;;;1947727;72;22237;-86
2022/04/01 17:29:22;;;;;;;0.82;0.53;;;1.70;99.90;;;;;;1893052;75;21079;-84
2022/04/01 17:34:56;;;;;;;0.78;0.78;;;1.70;99.90;;;;;;1914568;72;22192;-83
2022/04/01 17:38:07;;;;;;;0.62;0.62;;;1.70;99.90;;;;;;1833794;77;21227;-84
2022/04/01 17:41:04;;;;;;;0.40;0.40;;;1.70;99.90;;;;;;1917099;75;21145;-84
2022/04/01 17:46:42;;;;;;;0.70;0.62;;;1.70;99.90;;;;;;1945183;72;22189;-84
2022/04/01 17:49:53;;;;;;;0.62;0.45;;;1.70;99.90;;;;;;1928474;73;21086;-84
2022/04/01 17:52:45;;;;;;;0.55;0.50;;;1.60;99.90;;;;;;1925375;73;21095;-83
2022/04/01 17:55:40;;;;;;;0.70;0.70;;;1.70;99.90;;;;;;1933180;73;21208;-83
2022/04/01 17:58:35;;;;;;;1.05;0.68;;;1.70;99.90;;;;;;1932895;73;21086;-83
2022/04/01 18:01:30;;;;;;;0.80;0.60;;;1.60;99.90;;;;;;1917594;73;21913;-85
2022/04/01 18:04:23;;;;;;;0.40;0.40;;;1.50;99.90;;;;;;1925937;73;21123;-83
2022/04/01 18:07:18;;;;;;;0.80;0.80;;;1.30;99.90;;;;;;1916246;73;21096;-84
2022/04/01 18:10:15;;;;;;;1.12;0.40;;;1.30;99.90;;;;;;1920217;73;21518;-83
2022/04/01 18:13:09;;;;;;;0.30;0.30;;;1.30;99.90;;;;;;1918368;73;21201;-83
2022/04/01 18:16:06;;;;;;;0.90;0.80;;;1.40;99.90;;;;;;1930706;73;21137;-85
2022/04/01 18:18:59;;;;;;;0.82;0.80;;;1.40;99.90;;;;;;1924223;73;21107;-83
2022/04/01 18:21:50;;;;;;;0.70;0.30;;;1.40;99.90;;;;;;1919422;73;21086;-83
2022/04/01 18:28:00;;;;;;;0.50;0.50;;;1.40;99.90;;;;;;1925864;73;21176;-84
2022/04/01 18:30:59;;;;;;;1.17;1.00;;;1.40;99.90;;;;;;1935326;73;21134;-83
2022/04/01 18:33:58;;;;;;;1.55;1.00;;;1.40;99.90;;;;;;1922010;73;21224;-83
2022/04/01 18:36:54;;;;;;;0.45;0.45;;;1.40;99.90;;;;;;1930168;73;21152;-84
2022/04/01 18:42:30;;;;;;;0.50;0.50;;;1.30;99.90;;;;;;1958371;72;22285;-84
2022/04/01 18:48:18;;;;;;;0.90;0.60;;;1.30;99.90;;;;;;1940813;72;22302;-84
2022/04/01 18:51:30;;;;;;;0.70;0.62;;;1.30;99.90;;;;;;1906017;74;21181;-84
2022/04/01 18:54:24;;;;;;;1.40;1.00;;;1.30;99.90;;;;;;1905005;75;21047;-83
2022/04/01 18:59:57;;;;;;;2.55;0.93;;;1.30;99.90;;;;;;1936712;72;22240;-84
2022/04/01 19:03:17;;;;;;;1.05;1.00;;;1.30;99.90;;;;;;1896002;75;21110;-84
2022/04/01 19:19:22;;;;;;;0.93;0.33;;;1.30;99.90;;;;;;1865961;75;22308;-86
2022/04/01 19:25:12;;;;;;;1.50;0.40;;;1.30;99.90;;;;;;1936272;72;22795;-84
2022/04/01 19:28:22;;;;;;;0.37;0.37;;;1.30;99.90;;;;;;1905574;74;21161;-85
2022/04/01 19:31:14;;;;;;;1.20;0.85;;;1.30;99.90;;;;;;1922840;73;21118;-84
2022/04/01 19:36:44;;;;;;;0.60;0.60;;;1.30;99.90;;;;;;1961135;72;22652;-85
2022/04/01 19:39:57;;;;;;;0.50;0.50;;;1.30;99.90;;;;;;1933538;73;21130;-85
2022/04/01 19:45:29;;;;;;;0.70;0.70;;;1.30;99.90;;;;;;1942813;72;22273;-85
2022/04/01 19:51:17;;;;;;;1.12;0.70;;;1.40;99.90;;;;;;1933991;72;22216;-85
2022/04/01 19:54:28;;;;;;;0.80;0.70;;;1.40;99.90;;;;;;1920481;73;21137;-85
2022/04/01 19:57:19;;;;;;;0.85;0.57;;;1.40;99.90;;;;;;1913099;74;21098;-85
2022/04/01 20:02:56;;;;;;;1.67;1.30;;;1.40;99.90;;;;;;1920624;72;28072;-84
2022/04/01 20:06:07;;;;;;;0.70;0.60;;;1.40;99.90;;;;;;1886427;73;21118;-87
2022/04/01 20:08:59;;;;;;;0.40;0.40;;;1.40;99.90;;;;;;1901513;75;21060;-85
2022/04/01 20:14:29;;;;;;;0.60;0.50;;;1.50;99.90;;;;;;1958301;72;22158;-85
2022/04/01 20:17:39;;;;;;;0.50;0.50;;;1.50;99.90;;;;;;1907427;73;21103;-85
2022/04/01 20:20:34;;;;;;;0.47;0.30;;;1.60;99.90;;;;;;1918321;74;21149;-85
2022/04/01 20:23:25;;;;;;;0.40;0.40;;;1.60;99.90;;;;;;1904715;75;21114;-85
2022/04/01 20:28:58;;;;;;;0.60;0.30;;;1.50;99.90;;;;;;1941886;72;22186;-85
2022/04/01 20:32:08;;;;;;;1.35;0.30;;;1.50;99.90;;;;;;1886949;75;21406;-85
2022/04/01 20:37:40;;;;;;;1.42;0.78;;;1.40;99.90;;;;;;1945656;72;22166;-85
2022/04/01 20:43:32;;;;;;;0.93;0.85;;;1.40;99.90;;;;;;1953590;72;22720;-85
2022/04/01 20:46:44;;;;;;;0.65;0.53;;;1.40;99.90;;;;;;1922945;73;21173;-84
2022/04/01 20:49:36;;;;;;;1.62;0.70;;;1.40;99.90;;;;;;1927036;74;21095;-84
2022/04/01 20:52:29;;;;;;;1.12;0.50;;;1.40;99.90;;;;;;1921201;74;21189;-84
2022/04/01 20:58:06;;;;;;;0.28;0.28;;;1.40;99.90;;;;;;1940740;72;22177;-85
2022/04/01 21:01:16;;;;;;;0.40;0.40;;;1.40;99.90;;;;;;1911583;74;21051;-86
2022/04/01 21:04:08;;;;;;;1.05;0.75;;;1.40;99.90;;;;;;1920434;74;21157;-84
2022/04/01 21:07:00;;;;;;;0.82;0.40;;;1.50;99.90;;;;;;1916345;74;21054;-85
2022/04/01 21:09:53;;;;;;;0.30;0.30;;;1.50;99.90;;;;;;1900783;75;21129;-84
2022/04/01 21:12:46;;;;;;;0.45;0.45;;;1.50;99.90;;;;;;1898184;74;21077;-86
2022/04/01 21:15:40;;;;;;;0.23;0.23;;;1.60;99.90;;;;;;1917641;74;22264;-85
2022/04/01 21:18:32;;;;;;;0.53;0.53;;;1.60;99.90;;;;;;1918606;74;21105;-84
2022/04/01 21:24:18;;;;;;;0.62;0.62;;;1.70;99.90;;;;;;1956202;72;22142;-84
2022/04/01 21:27:32;;;;;;;0.45;0.30;;;1.70;99.90;;;;;;1935407;73;21157;-84
2022/04/01 21:30:24;;;;;;;0.55;0.55;;;1.60;99.90;;;;;;1919564;73;21097;-84
2022/04/01 21:33:15;;;;;;;0.90;0.68;;;1.60;99.90;;;;;;1879267;76;21114;-84
2022/04/01 21:36:10;;;;;;;1.07;0.80;;;1.70;99.90;;;;;;1930994;73;21083;-83
2022/04/01 21:39:01;;;;;;;0.78;0.62;;;1.70;99.90;;;;;;1917209;75;21129;-84
2022/04/01 21:41:53;;;;;;;1.25;0.93;;;1.70;99.90;;;;;;1930133;73;21176;-84
2022/04/01 21:44:45;;;;;;;0.53;0.50;;;1.70;99.90;;;;;;1919576;73;21101;-84